createdAt,value
2018-09-02T00:03:56.477Z,40.6
2018-09-02T00:09:04.407Z,41.4
2018-09-02T00:14:12.479Z,41.8
2018-09-02T00:24:28.261Z,42.1
2018-09-02T00:29:36.258Z,41.5
2018-09-02T00:34:44.153Z,42.3
2018-09-02T00:39:52.159Z,41.7
2018-09-02T00:45:00.060Z,41.9
2018-09-02T00:55:16.084Z,42.2
2018-09-02T01:00:24.042Z,42.1
2018-09-02T01:05:32.073Z,42.4
2018-09-02T01:10:40.023Z,42.1
2018-09-02T01:15:48.021Z,43
2018-09-02T01:20:55.965Z,43
2018-09-02T01:26:03.961Z,42.5
2018-09-02T01:31:11.948Z,42.6
2018-09-02T01:36:19.950Z,42.7
2018-09-02T01:41:28.111Z,42.6
2018-09-02T01:46:35.966Z,42.5
2018-09-02T01:51:43.955Z,42.3
2018-09-02T01:56:51.964Z,42.9
2018-09-02T02:02:00.479Z,42.7
2018-09-02T02:07:07.953Z,43.5
2018-09-02T02:17:23.975Z,43.7
2018-09-02T02:22:31.969Z,43.7
2018-09-02T02:27:40.016Z,42.6
2018-09-02T02:37:55.986Z,42.5
2018-09-02T02:43:03.993Z,42.9
2018-09-02T02:48:12.074Z,43.6
2018-09-02T02:53:21.644Z,42.9
2018-09-02T02:58:28.076Z,43.8
2018-09-02T03:03:36.129Z,43.7
2018-09-02T03:08:44.158Z,43.7
2018-09-02T03:13:55.556Z,43.2
2018-09-02T03:19:00.253Z,43.1
2018-09-02T03:24:08.314Z,43.8
2018-09-02T03:29:16.325Z,42.9
2018-09-02T03:34:24.374Z,42.8
2018-09-02T03:39:32.501Z,43.1
2018-09-02T03:44:40.484Z,42.7
2018-09-02T03:49:48.876Z,43.7
2018-09-02T03:54:57.063Z,44
2018-09-02T04:00:04.792Z,44
2018-09-02T04:05:12.787Z,43.8
2018-09-02T04:10:20.884Z,44.2
2018-09-02T04:20:37.083Z,44.6
2018-09-02T04:30:53.281Z,45
2018-09-02T04:36:01.388Z,45
2018-09-02T04:41:09.511Z,45
2018-09-02T04:46:17.743Z,45.5
2018-09-02T04:51:25.691Z,45.5
2018-09-02T04:56:33.921Z,45.5
2018-09-02T05:01:41.879Z,45.6
2018-09-02T05:06:49.953Z,45.5
2018-09-02T05:11:58.076Z,45.6
2018-09-02T05:17:06.212Z,46
2018-09-02T05:22:14.421Z,46.5
2018-09-02T05:27:22.563Z,45.9
2018-09-02T05:32:30.603Z,46.2
2018-09-02T05:37:38.625Z,46.2
2018-09-02T05:47:54.755Z,47.4
2018-09-02T05:53:02.813Z,46.7
2018-09-02T06:03:18.798Z,47
2018-09-02T06:08:26.794Z,47.9
2018-09-02T06:13:35.231Z,47.7
2018-09-02T06:18:42.709Z,47.6
2018-09-02T06:23:50.564Z,46.5
2018-09-02T06:28:58.453Z,45.4
2018-09-02T06:34:06.160Z,46.6
2018-09-02T06:39:13.893Z,46
2018-09-02T06:44:21.582Z,47.3
2018-09-02T06:49:29.288Z,47.4
2018-09-02T06:54:37.108Z,46.6
2018-09-02T06:59:44.408Z,44.9
2018-09-02T07:04:51.810Z,44.6
2018-09-02T07:09:59.323Z,43.8
2018-09-02T07:15:06.624Z,44.1
2018-09-02T07:20:13.936Z,43.5
2018-09-02T07:30:28.600Z,41.5
2018-09-02T07:35:35.751Z,40.6
2018-09-02T07:45:50.082Z,39.6
2018-09-02T07:50:57.249Z,39.7
2018-09-02T07:56:04.300Z,38.3
2018-09-02T08:01:11.370Z,37.9
2018-09-02T08:06:18.437Z,37
2018-09-02T08:16:32.437Z,36
2018-09-02T08:21:39.284Z,35.4
2018-09-02T08:31:53.137Z,33.8
2018-09-02T08:37:00.045Z,32.9
2018-09-02T08:42:06.914Z,31.9
2018-09-02T08:47:13.723Z,31.5
2018-09-02T08:52:20.449Z,30.5
2018-09-02T08:57:27.085Z,29.3
2018-09-02T09:02:33.876Z,29.2
2018-09-02T09:07:40.513Z,27.6
2018-09-02T09:17:53.862Z,26.8
2018-09-02T09:33:13.730Z,25.6
2018-09-02T09:38:20.396Z,25.5
2018-09-02T09:43:26.984Z,25.4
2018-09-02T09:48:33.531Z,24.8
2018-09-02T09:53:40.215Z,24.3
2018-09-02T09:58:46.611Z,23.8
2018-09-02T10:03:53.121Z,24.2
2018-09-02T10:08:59.640Z,23.5
2018-09-02T10:14:06.176Z,22.6
2018-09-02T10:19:12.700Z,22
2018-09-02T10:24:19.283Z,22.2
2018-09-02T10:34:32.616Z,21.6
2018-09-02T10:39:38.829Z,21.1
2018-09-02T10:44:45.434Z,21.2
2018-09-02T10:49:51.916Z,20.2
2018-09-02T11:00:05.003Z,21
2018-09-02T11:10:18.091Z,19.7
2018-09-02T11:15:24.646Z,19.1
2018-09-02T11:20:31.182Z,18.6
2018-09-02T11:25:37.735Z,18.2
2018-09-02T11:30:44.279Z,18
2018-09-02T11:35:50.809Z,17.9
2018-09-02T11:40:57.396Z,16.6
2018-09-02T11:46:04.024Z,16.8
2018-09-02T11:51:10.448Z,16.9
2018-09-02T11:56:16.999Z,17.6
2018-09-02T12:01:23.552Z,17
2018-09-02T12:06:30.120Z,16.4
2018-09-02T12:11:36.683Z,16.5
2018-09-02T12:21:49.818Z,17
2018-09-02T12:26:56.420Z,17.3
2018-09-02T12:37:09.616Z,15.8
2018-09-02T12:42:16.306Z,16.7
2018-09-02T12:52:29.563Z,16.5
2018-09-02T13:02:42.832Z,17.4
2018-09-02T13:07:49.493Z,16.9
2018-09-02T13:18:02.884Z,17.1
2018-09-02T13:23:09.619Z,17.6
2018-09-02T13:28:16.336Z,17.8
2018-09-02T13:38:29.855Z,17.8
2018-09-02T13:43:36.694Z,17.7
2018-09-02T13:48:43.492Z,18.3
2018-09-02T13:53:51.190Z,18.5
2018-09-02T13:58:57.318Z,19.3
2018-09-02T14:04:04.168Z,18.9
2018-09-02T14:09:11.110Z,20
2018-09-02T14:14:18.142Z,20.1
2018-09-02T14:24:32.103Z,20.7
2018-09-02T14:34:46.219Z,20.3
2018-09-02T14:39:53.365Z,20.9
2018-09-02T14:45:00.384Z,21.4
2018-09-02T14:50:07.466Z,21.7
2018-09-02T15:00:21.725Z,23.1
2018-09-02T15:05:28.879Z,22.4
2018-09-02T15:10:36.060Z,22.6
2018-09-02T15:15:43.299Z,22.6
2018-09-02T15:20:50.420Z,22.6
2018-09-02T15:25:57.573Z,23.1
2018-09-02T15:31:04.750Z,23.7
2018-09-02T15:36:11.934Z,23
2018-09-02T15:41:19.134Z,23.7
2018-09-02T15:46:26.321Z,22.9
2018-09-02T15:51:33.468Z,22.9
2018-09-02T15:56:40.654Z,23
2018-09-02T16:06:55.073Z,22.8
2018-09-02T16:17:09.445Z,23.5
2018-09-02T16:27:23.854Z,23.1
2018-09-02T16:32:31.018Z,23.1
2018-09-02T16:37:38.231Z,23.9
2018-09-02T16:47:52.603Z,24.7
2018-09-02T16:52:59.847Z,24.7
2018-09-02T16:58:07.005Z,24.5
2018-09-02T17:08:21.536Z,24.4
2018-09-02T17:13:28.802Z,25.1
2018-09-02T17:18:36.094Z,25.4
2018-09-02T17:23:43.253Z,26.6
2018-09-02T17:28:50.537Z,26.7
2018-09-02T17:33:57.820Z,26.6
2018-09-02T17:39:05.125Z,26.2
2018-09-02T17:44:12.792Z,27.1
2018-09-02T17:49:20.086Z,26.7
2018-09-02T17:59:34.379Z,27.8
2018-09-02T18:04:41.829Z,27.2
2018-09-02T18:09:49.171Z,28
2018-09-02T18:14:56.574Z,28.8
2018-09-02T18:20:03.986Z,29.5
2018-09-02T18:25:11.569Z,29
2018-09-02T18:30:18.837Z,29.2
2018-09-02T18:35:26.548Z,29
2018-09-02T18:40:33.886Z,28.4
2018-09-02T18:45:41.277Z,28.6
2018-09-02T18:50:48.661Z,28.5
2018-09-02T18:55:56.116Z,28.8
2018-09-02T19:01:03.589Z,28.7
2018-09-02T19:06:11.079Z,29.3
2018-09-02T19:11:18.603Z,29.3
2018-09-02T19:16:26.192Z,28.8
2018-09-02T19:21:33.647Z,28.6
2018-09-02T19:26:41.160Z,28.4
2018-09-02T19:31:48.684Z,29.4
2018-09-02T19:42:03.693Z,29.9
2018-09-02T19:47:11.664Z,29.6
2018-09-02T19:52:18.752Z,29.9
2018-09-02T19:57:26.360Z,30
2018-09-02T20:02:33.817Z,30.2
2018-09-02T20:07:41.392Z,29.5
2018-09-02T20:12:48.862Z,30.4
2018-09-02T20:17:56.438Z,30.5
2018-09-02T20:23:03.946Z,30.4
2018-09-02T20:28:11.506Z,31
2018-09-02T20:33:19.225Z,31.4
2018-09-02T20:38:27.171Z,31.5
2018-09-02T20:43:34.216Z,31.2
2018-09-02T20:48:41.976Z,31.8
2018-09-02T20:53:49.341Z,31.5
2018-09-02T20:58:56.913Z,32.1
2018-09-02T21:04:04.501Z,32.1
2018-09-02T21:09:12.049Z,32.5
2018-09-02T21:14:19.643Z,32.3
2018-09-02T21:24:34.823Z,33.4
2018-09-02T21:29:42.422Z,33.8
2018-09-02T21:34:50.297Z,33.4
2018-09-02T21:39:57.664Z,34.3
2018-09-02T21:45:05.288Z,35.1
2018-09-02T21:50:12.881Z,34.4
2018-09-02T21:55:20.513Z,34
2018-09-02T22:00:28.143Z,33.5
2018-09-02T22:05:35.750Z,34.2
2018-09-02T22:10:43.369Z,34.4
2018-09-02T22:15:50.991Z,34.6
2018-09-02T22:20:58.610Z,34.1
2018-09-02T22:26:06.221Z,34.7
2018-09-02T22:31:13.816Z,34.6
2018-09-02T22:36:21.428Z,34
2018-09-02T22:41:29.062Z,34.2
2018-09-02T22:46:36.693Z,34.3
2018-09-02T22:56:51.915Z,33.8
2018-09-02T23:07:07.150Z,33.4
2018-09-02T23:12:14.779Z,33.8
2018-09-02T23:17:22.405Z,33.5
2018-09-02T23:22:30.040Z,34.1
2018-09-02T23:32:45.413Z,33.7
2018-09-02T23:37:52.954Z,33.9
2018-09-02T23:43:00.621Z,33.5
2018-09-02T23:48:08.215Z,33.9
2018-09-02T23:53:15.864Z,33.9
2018-09-02T23:58:23.491Z,33.8
